sensor_id;sensor_type;location;lat;lon;timestamp;temperature;humidity
31309;DHT22;17936;52.446;10.840;2023-02-04T00:01:42;4.10;99.90
31309;DHT22;17936;52.446;10.840;2023-02-04T00:04:08;4.10;99.90
31309;DHT22;17936;52.446;10.840;2023-02-04T00:06:34;4.10;99.90
31309;DHT22;17936;52.446;10.840;2023-02-04T00:08:59;4.00;99.90
31309;DHT22;17936;52.446;10.840;2023-02-04T00:11:25;4.00;99.90
31309;DHT22;17936;52.446;10.840;2023-02-04T00:13:50;3.90;99.90
31309;DHT22;17936;52.446;10.840;2023-02-04T00:16:16;3.80;99.90
31309;DHT22;17936;52.446;10.840;2023-02-04T00:18:41;3.70;99.90
31309;DHT22;17936;52.446;10.840;2023-02-04T00:21:07;3.60;99.90
31309;DHT22;17936;52.446;10.840;2023-02-04T00:23:32;3.50;99.90
31309;DHT22;17936;52.446;10.840;2023-02-04T00:25:58;3.50;99.90
31309;DHT22;17936;52.446;10.840;2023-02-04T00:28:23;3.40;99.90
31309;DHT22;17936;52.446;10.840;2023-02-04T00:30:49;3.40;99.90
31309;DHT22;17936;52.446;10.840;2023-02-04T00:33:14;3.30;99.90
31309;DHT22;17936;52.446;10.840;2023-02-04T00:35:40;3.20;99.90
31309;DHT22;17936;52.446;10.840;2023-02-04T00:38:05;3.20;99.90
31309;DHT22;17936;52.446;10.840;2023-02-04T00:40:31;3.20;99.90
31309;DHT22;17936;52.446;10.840;2023-02-04T00:42:57;3.10;99.90
31309;DHT22;17936;52.446;10.840;2023-02-04T00:45:23;3.10;99.90
31309;DHT22;17936;52.446;10.840;2023-02-04T00:47:48;3.00;99.90
31309;DHT22;17936;52.446;10.840;2023-02-04T00:50:14;3.00;99.90
31309;DHT22;17936;52.446;10.840;2023-02-04T00:52:40;3.00;99.90
31309;DHT22;17936;52.446;10.840;2023-02-04T00:55:06;2.90;99.90
31309;DHT22;17936;52.446;10.840;2023-02-04T00:57:32;2.90;99.90
31309;DHT22;17936;52.446;10.840;2023-02-04T00:59:58;2.80;99.90
31309;DHT22;17936;52.446;10.840;2023-02-04T01:02:23;2.80;99.90
31309;DHT22;17936;52.446;10.840;2023-02-04T01:04:49;2.80;99.90
31309;DHT22;17936;52.446;10.840;2023-02-04T01:07:15;2.80;99.90
31309;DHT22;17936;52.446;10.840;2023-02-04T01:09:40;2.80;99.90
31309;DHT22;17936;52.446;10.840;2023-02-04T01:12:06;2.80;99.90
31309;DHT22;17936;52.446;10.840;2023-02-04T01:14:31;3.00;99.90
31309;DHT22;17936;52.446;10.840;2023-02-04T01:16:57;2.90;99.90
31309;DHT22;17936;52.446;10.840;2023-02-04T01:19:22;2.90;99.90
31309;DHT22;17936;52.446;10.840;2023-02-04T01:21:48;2.90;99.90
31309;DHT22;17936;52.446;10.840;2023-02-04T01:24:13;2.90;99.90
31309;DHT22;17936;52.446;10.840;2023-02-04T01:26:39;2.90;99.90
31309;DHT22;17936;52.446;10.840;2023-02-04T01:29:04;2.90;99.90
31309;DHT22;17936;52.446;10.840;2023-02-04T01:31:30;3.00;99.90
31309;DHT22;17936;52.446;10.840;2023-02-04T01:33:58;3.00;99.90
31309;DHT22;17936;52.446;10.840;2023-02-04T01:36:24;3.00;99.90
31309;DHT22;17936;52.446;10.840;2023-02-04T01:38:50;3.00;99.90
31309;DHT22;17936;52.446;10.840;2023-02-04T01:41:16;3.00;99.90
31309;DHT22;17936;52.446;10.840;2023-02-04T01:43:42;2.90;99.90
31309;DHT22;17936;52.446;10.840;2023-02-04T01:46:07;2.80;99.90
31309;DHT22;17936;52.446;10.840;2023-02-04T01:48:33;2.80;99.90
31309;DHT22;17936;52.446;10.840;2023-02-04T01:51:06;2.70;99.90
31309;DHT22;17936;52.446;10.840;2023-02-04T01:53:33;2.70;99.90
31309;DHT22;17936;52.446;10.840;2023-02-04T01:56:00;2.70;99.90
31309;DHT22;17936;52.446;10.840;2023-02-04T01:58:27;2.60;99.90
31309;DHT22;17936;52.446;10.840;2023-02-04T02:00:54;2.60;99.90
31309;DHT22;17936;52.446;10.840;2023-02-04T02:03:19;2.60;99.90
31309;DHT22;17936;52.446;10.840;2023-02-04T02:05:47;2.60;99.90
31309;DHT22;17936;52.446;10.840;2023-02-04T02:08:14;2.60;99.90
31309;DHT22;17936;52.446;10.840;2023-02-04T02:10:42;2.60;99.90
31309;DHT22;17936;52.446;10.840;2023-02-04T02:13:11;2.70;99.90
31309;DHT22;17936;52.446;10.840;2023-02-04T02:15:38;2.70;99.90
31309;DHT22;17936;52.446;10.840;2023-02-04T02:18:04;2.70;99.90
31309;DHT22;17936;52.446;10.840;2023-02-04T02:20:30;2.70;99.90
31309;DHT22;17936;52.446;10.840;2023-02-04T02:23:23;2.70;99.90
31309;DHT22;17936;52.446;10.840;2023-02-04T02:25:51;2.70;99.90
31309;DHT22;17936;52.446;10.840;2023-02-04T02:28:19;2.50;99.90
31309;DHT22;17936;52.446;10.840;2023-02-04T02:30:46;2.50;99.90
31309;DHT22;17936;52.446;10.840;2023-02-04T02:33:14;2.40;99.90
31309;DHT22;17936;52.446;10.840;2023-02-04T02:35:42;2.40;99.90
31309;DHT22;17936;52.446;10.840;2023-02-04T02:38:11;2.30;99.90
31309;DHT22;17936;52.446;10.840;2023-02-04T02:40:37;2.40;99.90
31309;DHT22;17936;52.446;10.840;2023-02-04T02:43:03;2.30;99.90
31309;DHT22;17936;52.446;10.840;2023-02-04T02:45:30;2.20;99.90
31309;DHT22;17936;52.446;10.840;2023-02-04T02:47:58;2.20;99.90
31309;DHT22;17936;52.446;10.840;2023-02-04T02:50:26;2.10;99.90
31309;DHT22;17936;52.446;10.840;2023-02-04T02:52:53;2.10;99.90
31309;DHT22;17936;52.446;10.840;2023-02-04T02:55:21;2.20;99.90
31309;DHT22;17936;52.446;10.840;2023-02-04T02:57:48;2.20;99.90
31309;DHT22;17936;52.446;10.840;2023-02-04T03:00:26;2.20;99.90
31309;DHT22;17936;52.446;10.840;2023-02-04T03:05:29;2.30;99.90
31309;DHT22;17936;52.446;10.840;2023-02-04T03:07:57;2.30;99.90
31309;DHT22;17936;52.446;10.840;2023-02-04T03:10:22;2.30;99.90
31309;DHT22;17936;52.446;10.840;2023-02-04T03:12:48;2.30;99.90
31309;DHT22;17936;52.446;10.840;2023-02-04T03:15:14;2.30;99.90
31309;DHT22;17936;52.446;10.840;2023-02-04T03:17:40;2.40;99.90
31309;DHT22;17936;52.446;10.840;2023-02-04T03:20:07;2.40;99.90
31309;DHT22;17936;52.446;10.840;2023-02-04T03:22:33;2.30;99.90
31309;DHT22;17936;52.446;10.840;2023-02-04T03:24:58;2.30;99.90
31309;DHT22;17936;52.446;10.840;2023-02-04T03:27:24;2.10;99.90
31309;DHT22;17936;52.446;10.840;2023-02-04T03:29:50;1.90;99.90
31309;DHT22;17936;52.446;10.840;2023-02-04T03:32:15;2.00;99.90
31309;DHT22;17936;52.446;10.840;2023-02-04T03:34:41;2.00;99.90
31309;DHT22;17936;52.446;10.840;2023-02-04T03:37:07;2.00;99.90
31309;DHT22;17936;52.446;10.840;2023-02-04T03:39:33;2.00;99.90
31309;DHT22;17936;52.446;10.840;2023-02-04T03:41:58;2.00;99.90
31309;DHT22;17936;52.446;10.840;2023-02-04T03:44:23;2.10;99.90
31309;DHT22;17936;52.446;10.840;2023-02-04T03:46:51;2.20;99.90
31309;DHT22;17936;52.446;10.840;2023-02-04T03:49:23;2.20;99.90
31309;DHT22;17936;52.446;10.840;2023-02-04T03:51:48;2.20;99.90
31309;DHT22;17936;52.446;10.840;2023-02-04T03:54:14;2.20;99.90
31309;DHT22;17936;52.446;10.840;2023-02-04T03:56:40;2.20;99.90
31309;DHT22;17936;52.446;10.840;2023-02-04T03:59:05;2.30;99.90
31309;DHT22;17936;52.446;10.840;2023-02-04T04:01:31;2.30;99.90
31309;DHT22;17936;52.446;10.840;2023-02-04T04:03:57;2.30;99.90
31309;DHT22;17936;52.446;10.840;2023-02-04T04:06:22;2.30;99.90
31309;DHT22;17936;52.446;10.840;2023-02-04T04:08:48;2.40;99.90
31309;DHT22;17936;52.446;10.840;2023-02-04T04:11:13;2.30;99.90
31309;DHT22;17936;52.446;10.840;2023-02-04T04:13:39;2.20;99.90
31309;DHT22;17936;52.446;10.840;2023-02-04T04:16:05;2.20;99.90
31309;DHT22;17936;52.446;10.840;2023-02-04T04:18:31;2.20;99.90
31309;DHT22;17936;52.446;10.840;2023-02-04T04:20:57;2.20;99.90
31309;DHT22;17936;52.446;10.840;2023-02-04T04:23:23;2.10;99.90
31309;DHT22;17936;52.446;10.840;2023-02-04T04:25:48;2.20;99.90
31309;DHT22;17936;52.446;10.840;2023-02-04T04:28:14;2.20;99.90
31309;DHT22;17936;52.446;10.840;2023-02-04T04:30:39;2.20;99.90
31309;DHT22;17936;52.446;10.840;2023-02-04T04:33:05;2.20;99.90
31309;DHT22;17936;52.446;10.840;2023-02-04T04:35:31;2.30;99.90
31309;DHT22;17936;52.446;10.840;2023-02-04T04:37:56;2.30;99.90
31309;DHT22;17936;52.446;10.840;2023-02-04T04:40:22;2.30;99.90
31309;DHT22;17936;52.446;10.840;2023-02-04T04:42:47;2.20;99.90
31309;DHT22;17936;52.446;10.840;2023-02-04T04:45:13;2.30;99.90
31309;DHT22;17936;52.446;10.840;2023-02-04T04:47:38;2.30;99.90
31309;DHT22;17936;52.446;10.840;2023-02-04T04:50:04;2.20;99.90
31309;DHT22;17936;52.446;10.840;2023-02-04T04:52:30;2.30;99.90
31309;DHT22;17936;52.446;10.840;2023-02-04T04:54:55;2.20;99.90
31309;DHT22;17936;52.446;10.840;2023-02-04T04:57:21;2.30;99.90
31309;DHT22;17936;52.446;10.840;2023-02-04T04:59:46;2.20;99.90
31309;DHT22;17936;52.446;10.840;2023-02-04T05:02:12;2.20;99.90
31309;DHT22;17936;52.446;10.840;2023-02-04T05:04:37;2.20;99.90
31309;DHT22;17936;52.446;10.840;2023-02-04T05:07:03;2.20;99.90
31309;DHT22;17936;52.446;10.840;2023-02-04T05:09:28;2.20;99.90
31309;DHT22;17936;52.446;10.840;2023-02-04T05:11:55;2.20;99.90
31309;DHT22;17936;52.446;10.840;2023-02-04T05:14:20;2.20;99.90
31309;DHT22;17936;52.446;10.840;2023-02-04T05:16:46;2.20;99.90
31309;DHT22;17936;52.446;10.840;2023-02-04T05:19:11;2.20;99.90
31309;DHT22;17936;52.446;10.840;2023-02-04T05:21:37;2.20;99.90
31309;DHT22;17936;52.446;10.840;2023-02-04T05:24:02;2.10;99.90
31309;DHT22;17936;52.446;10.840;2023-02-04T05:26:30;2.10;99.90
31309;DHT22;17936;52.446;10.840;2023-02-04T05:28:56;2.00;99.90
31309;DHT22;17936;52.446;10.840;2023-02-04T05:31:22;2.10;99.90
31309;DHT22;17936;52.446;10.840;2023-02-04T05:33:47;2.00;99.90
31309;DHT22;17936;52.446;10.840;2023-02-04T05:36:13;2.10;99.90
31309;DHT22;17936;52.446;10.840;2023-02-04T05:38:38;2.10;99.90
31309;DHT22;17936;52.446;10.840;2023-02-04T05:41:04;2.00;99.90
31309;DHT22;17936;52.446;10.840;2023-02-04T05:43:30;2.00;99.90
31309;DHT22;17936;52.446;10.840;2023-02-04T05:45:55;2.00;99.90
31309;DHT22;17936;52.446;10.840;2023-02-04T05:48:22;1.90;99.90
31309;DHT22;17936;52.446;10.840;2023-02-04T05:50:47;1.90;99.90
31309;DHT22;17936;52.446;10.840;2023-02-04T05:53:13;1.90;99.90
31309;DHT22;17936;52.446;10.840;2023-02-04T05:55:38;1.80;99.90
31309;DHT22;17936;52.446;10.840;2023-02-04T05:58:03;1.80;99.90
31309;DHT22;17936;52.446;10.840;2023-02-04T06:00:29;1.70;99.90
31309;DHT22;17936;52.446;10.840;2023-02-04T06:02:54;1.70;99.90
31309;DHT22;17936;52.446;10.840;2023-02-04T06:05:20;1.70;99.90
31309;DHT22;17936;52.446;10.840;2023-02-04T06:07:47;1.70;99.90
31309;DHT22;17936;52.446;10.840;2023-02-04T06:10:13;1.80;99.90
31309;DHT22;17936;52.446;10.840;2023-02-04T06:12:38;1.80;99.90
31309;DHT22;17936;52.446;10.840;2023-02-04T06:15:04;1.80;99.90
31309;DHT22;17936;52.446;10.840;2023-02-04T06:17:30;1.90;99.90
31309;DHT22;17936;52.446;10.840;2023-02-04T06:19:55;2.00;99.90
31309;DHT22;17936;52.446;10.840;2023-02-04T06:22:21;1.90;99.90
31309;DHT22;17936;52.446;10.840;2023-02-04T06:24:49;1.90;99.90
31309;DHT22;17936;52.446;10.840;2023-02-04T06:27:14;1.80;99.90
31309;DHT22;17936;52.446;10.840;2023-02-04T06:29:50;1.70;99.90
31309;DHT22;17936;52.446;10.840;2023-02-04T06:32:17;1.70;99.90
31309;DHT22;17936;52.446;10.840;2023-02-04T06:34:42;1.70;99.90
31309;DHT22;17936;52.446;10.840;2023-02-04T06:37:08;1.50;99.90
31309;DHT22;17936;52.446;10.840;2023-02-04T06:39:34;1.50;99.90
31309;DHT22;17936;52.446;10.840;2023-02-04T06:41:59;1.50;99.90
31309;DHT22;17936;52.446;10.840;2023-02-04T06:44:25;1.50;99.90
31309;DHT22;17936;52.446;10.840;2023-02-04T06:46:50;1.50;99.90
31309;DHT22;17936;52.446;10.840;2023-02-04T06:49:16;1.40;99.90
31309;DHT22;17936;52.446;10.840;2023-02-04T06:51:42;1.50;99.90
31309;DHT22;17936;52.446;10.840;2023-02-04T06:54:07;1.40;99.90
31309;DHT22;17936;52.446;10.840;2023-02-04T06:56:33;1.50;99.90
31309;DHT22;17936;52.446;10.840;2023-02-04T06:58:58;1.50;99.90
31309;DHT22;17936;52.446;10.840;2023-02-04T07:01:24;1.40;99.90
31309;DHT22;17936;52.446;10.840;2023-02-04T07:03:49;1.30;99.90
31309;DHT22;17936;52.446;10.840;2023-02-04T07:06:15;1.30;99.90
31309;DHT22;17936;52.446;10.840;2023-02-04T07:08:40;1.30;99.90
31309;DHT22;17936;52.446;10.840;2023-02-04T07:11:06;1.30;99.90
31309;DHT22;17936;52.446;10.840;2023-02-04T07:13:31;1.20;99.90
31309;DHT22;17936;52.446;10.840;2023-02-04T07:15:57;1.10;99.90
31309;DHT22;17936;52.446;10.840;2023-02-04T07:18:23;1.00;99.90
31309;DHT22;17936;52.446;10.840;2023-02-04T07:20:48;1.10;99.90
31309;DHT22;17936;52.446;10.840;2023-02-04T07:23:14;1.10;99.90
31309;DHT22;17936;52.446;10.840;2023-02-04T07:25:39;1.10;99.90
31309;DHT22;17936;52.446;10.840;2023-02-04T07:28:05;1.10;99.90
31309;DHT22;17936;52.446;10.840;2023-02-04T07:30:31;1.10;99.90
31309;DHT22;17936;52.446;10.840;2023-02-04T07:32:57;1.20;99.90
31309;DHT22;17936;52.446;10.840;2023-02-04T07:35:23;1.20;99.90
31309;DHT22;17936;52.446;10.840;2023-02-04T07:37:49;1.20;99.90
31309;DHT22;17936;52.446;10.840;2023-02-04T07:40:15;1.30;99.90
31309;DHT22;17936;52.446;10.840;2023-02-04T07:42:40;1.30;99.90
31309;DHT22;17936;52.446;10.840;2023-02-04T07:45:07;1.20;99.90
31309;DHT22;17936;52.446;10.840;2023-02-04T07:47:33;1.30;99.90
31309;DHT22;17936;52.446;10.840;2023-02-04T07:49:58;1.30;99.90
31309;DHT22;17936;52.446;10.840;2023-02-04T07:52:24;1.30;99.90
31309;DHT22;17936;52.446;10.840;2023-02-04T07:54:50;1.50;99.90
31309;DHT22;17936;52.446;10.840;2023-02-04T07:57:17;1.60;99.90
31309;DHT22;17936;52.446;10.840;2023-02-04T07:59:43;1.60;99.90
31309;DHT22;17936;52.446;10.840;2023-02-04T08:02:11;1.70;99.90
31309;DHT22;17936;52.446;10.840;2023-02-04T08:04:37;1.80;99.90
31309;DHT22;17936;52.446;10.840;2023-02-04T08:07:03;1.90;99.90
31309;DHT22;17936;52.446;10.840;2023-02-04T08:09:29;1.90;99.90
31309;DHT22;17936;52.446;10.840;2023-02-04T08:11:54;2.20;99.90
31309;DHT22;17936;52.446;10.840;2023-02-04T08:14:20;2.60;99.90
31309;DHT22;17936;52.446;10.840;2023-02-04T08:16:46;2.60;99.90
31309;DHT22;17936;52.446;10.840;2023-02-04T08:19:11;2.80;99.90
31309;DHT22;17936;52.446;10.840;2023-02-04T08:21:43;3.00;99.90
31309;DHT22;17936;52.446;10.840;2023-02-04T08:24:09;2.90;99.90
31309;DHT22;17936;52.446;10.840;2023-02-04T08:26:34;3.10;99.90
31309;DHT22;17936;52.446;10.840;2023-02-04T08:29:00;3.10;99.90
31309;DHT22;17936;52.446;10.840;2023-02-04T08:31:26;3.20;99.90
31309;DHT22;17936;52.446;10.840;2023-02-04T08:33:51;3.40;99.90
31309;DHT22;17936;52.446;10.840;2023-02-04T08:36:17;3.30;99.90
31309;DHT22;17936;52.446;10.840;2023-02-04T08:38:42;3.50;99.90
31309;DHT22;17936;52.446;10.840;2023-02-04T08:41:09;3.90;99.90
31309;DHT22;17936;52.446;10.840;2023-02-04T08:43:34;3.90;99.90
31309;DHT22;17936;52.446;10.840;2023-02-04T08:46:01;4.30;99.90
31309;DHT22;17936;52.446;10.840;2023-02-04T08:48:26;4.40;99.90
31309;DHT22;17936;52.446;10.840;2023-02-04T08:50:52;4.70;99.90
31309;DHT22;17936;52.446;10.840;2023-02-04T08:53:17;4.70;99.90
31309;DHT22;17936;52.446;10.840;2023-02-04T08:55:43;4.40;99.90
31309;DHT22;17936;52.446;10.840;2023-02-04T08:58:09;4.10;99.90
31309;DHT22;17936;52.446;10.840;2023-02-04T09:00:34;4.20;99.90
31309;DHT22;17936;52.446;10.840;2023-02-04T09:03:00;4.10;99.90
31309;DHT22;17936;52.446;10.840;2023-02-04T09:05:25;4.10;99.90
31309;DHT22;17936;52.446;10.840;2023-02-04T09:07:51;4.10;99.90
31309;DHT22;17936;52.446;10.840;2023-02-04T09:10:16;4.60;99.90
31309;DHT22;17936;52.446;10.840;2023-02-04T09:12:42;4.40;99.90
31309;DHT22;17936;52.446;10.840;2023-02-04T09:15:10;4.40;99.90
31309;DHT22;17936;52.446;10.840;2023-02-04T09:17:36;4.60;99.90
31309;DHT22;17936;52.446;10.840;2023-02-04T09:20:02;4.70;99.90
31309;DHT22;17936;52.446;10.840;2023-02-04T09:22:28;4.60;99.90
31309;DHT22;17936;52.446;10.840;2023-02-04T09:24:53;4.60;99.90
31309;DHT22;17936;52.446;10.840;2023-02-04T09:27:19;4.60;99.90
31309;DHT22;17936;52.446;10.840;2023-02-04T09:29:44;4.50;99.90
31309;DHT22;17936;52.446;10.840;2023-02-04T09:32:10;4.30;99.90
31309;DHT22;17936;52.446;10.840;2023-02-04T09:34:35;4.60;99.90
31309;DHT22;17936;52.446;10.840;2023-02-04T09:37:01;4.80;99.90
31309;DHT22;17936;52.446;10.840;2023-02-04T09:39:27;5.10;99.90
31309;DHT22;17936;52.446;10.840;2023-02-04T09:41:53;5.10;86.00
31309;DHT22;17936;52.446;10.840;2023-02-04T09:44:20;5.20;93.10
31309;DHT22;17936;52.446;10.840;2023-02-04T09:46:51;5.20;59.70
31309;DHT22;17936;52.446;10.840;2023-02-04T09:49:18;5.00;99.90
31309;DHT22;17936;52.446;10.840;2023-02-04T09:51:44;4.80;99.90
31309;DHT22;17936;52.446;10.840;2023-02-04T09:54:17;4.40;99.90
31309;DHT22;17936;52.446;10.840;2023-02-04T09:56:43;4.50;99.90
31309;DHT22;17936;52.446;10.840;2023-02-04T09:59:12;4.70;99.90
31309;DHT22;17936;52.446;10.840;2023-02-04T10:01:38;4.80;99.90
31309;DHT22;17936;52.446;10.840;2023-02-04T10:04:04;4.60;99.90
31309;DHT22;17936;52.446;10.840;2023-02-04T10:06:29;4.50;99.90
31309;DHT22;17936;52.446;10.840;2023-02-04T10:08:55;4.60;99.90
31309;DHT22;17936;52.446;10.840;2023-02-04T10:11:23;4.60;99.90
31309;DHT22;17936;52.446;10.840;2023-02-04T10:13:52;4.80;99.90
31309;DHT22;17936;52.446;10.840;2023-02-04T10:16:24;4.90;99.90
31309;DHT22;17936;52.446;10.840;2023-02-04T10:18:58;4.80;99.90
31309;DHT22;17936;52.446;10.840;2023-02-04T10:21:27;4.80;99.90
31309;DHT22;17936;52.446;10.840;2023-02-04T10:23:55;5.20;99.90
31309;DHT22;17936;52.446;10.840;2023-02-04T10:26:23;5.10;99.90
31309;DHT22;17936;52.446;10.840;2023-02-04T10:28:49;4.80;99.90
31309;DHT22;17936;52.446;10.840;2023-02-04T10:34:12;4.50;99.90
31309;DHT22;17936;52.446;10.840;2023-02-04T10:36:39;5.00;99.90
31309;DHT22;17936;52.446;10.840;2023-02-04T10:39:13;5.30;99.90
31309;DHT22;17936;52.446;10.840;2023-02-04T10:41:53;5.30;99.90
31309;DHT22;17936;52.446;10.840;2023-02-04T10:44:25;5.40;99.90
31309;DHT22;17936;52.446;10.840;2023-02-04T10:47:00;5.00;99.90
31309;DHT22;17936;52.446;10.840;2023-02-04T10:49:26;5.10;99.90
31309;DHT22;17936;52.446;10.840;2023-02-04T10:51:52;5.30;99.90
31309;DHT22;17936;52.446;10.840;2023-02-04T10:54:28;5.50;99.90
31309;DHT22;17936;52.446;10.840;2023-02-04T10:59:27;4.50;99.90
31309;DHT22;17936;52.446;10.840;2023-02-04T11:01:58;4.60;99.90
31309;DHT22;17936;52.446;10.840;2023-02-04T11:04:25;4.50;99.90
31309;DHT22;17936;52.446;10.840;2023-02-04T11:06:51;4.40;99.90
31309;DHT22;17936;52.446;10.840;2023-02-04T11:09:18;4.70;99.90
31309;DHT22;17936;52.446;10.840;2023-02-04T11:11:45;4.70;99.90
31309;DHT22;17936;52.446;10.840;2023-02-04T11:14:23;4.50;99.90
31309;DHT22;17936;52.446;10.840;2023-02-04T11:16:49;4.50;99.90
31309;DHT22;17936;52.446;10.840;2023-02-04T11:19:14;5.10;99.90
31309;DHT22;17936;52.446;10.840;2023-02-04T11:22:04;5.20;99.90
31309;DHT22;17936;52.446;10.840;2023-02-04T11:24:32;5.70;99.90
31309;DHT22;17936;52.446;10.840;2023-02-04T11:27:07;5.20;99.90
31309;DHT22;17936;52.446;10.840;2023-02-04T11:29:35;5.20;99.90
31309;DHT22;17936;52.446;10.840;2023-02-04T11:32:35;5.00;99.90
31309;DHT22;17936;52.446;10.840;2023-02-04T11:35:19;4.90;99.90
31309;DHT22;17936;52.446;10.840;2023-02-04T11:37:46;5.60;99.90
31309;DHT22;17936;52.446;10.840;2023-02-04T11:40:33;5.60;99.90
31309;DHT22;17936;52.446;10.840;2023-02-04T11:43:17;6.10;99.90
31309;DHT22;17936;52.446;10.840;2023-02-04T11:45:43;5.80;99.90
31309;DHT22;17936;52.446;10.840;2023-02-04T11:48:20;6.00;99.90
31309;DHT22;17936;52.446;10.840;2023-02-04T11:50:57;6.00;99.90
31309;DHT22;17936;52.446;10.840;2023-02-04T11:53:26;6.00;99.90
31309;DHT22;17936;52.446;10.840;2023-02-04T11:55:52;6.00;99.90
31309;DHT22;17936;52.446;10.840;2023-02-04T11:58:19;6.70;99.90
31309;DHT22;17936;52.446;10.840;2023-02-04T12:00:45;6.70;99.90
31309;DHT22;17936;52.446;10.840;2023-02-04T12:03:44;7.00;99.90
31309;DHT22;17936;52.446;10.840;2023-02-04T12:06:22;6.40;99.90
31309;DHT22;17936;52.446;10.840;2023-02-04T12:08:48;6.60;99.90
31309;DHT22;17936;52.446;10.840;2023-02-04T12:11:26;6.80;99.90
31309;DHT22;17936;52.446;10.840;2023-02-04T12:13:54;6.90;99.90
31309;DHT22;17936;52.446;10.840;2023-02-04T12:16:21;6.70;99.90
31309;DHT22;17936;52.446;10.840;2023-02-04T12:18:46;6.50;99.90
31309;DHT22;17936;52.446;10.840;2023-02-04T12:21:12;6.50;99.90
31309;DHT22;17936;52.446;10.840;2023-02-04T12:23:41;6.60;99.90
31309;DHT22;17936;52.446;10.840;2023-02-04T12:26:10;6.70;99.90
31309;DHT22;17936;52.446;10.840;2023-02-04T12:28:36;6.90;99.90
31309;DHT22;17936;52.446;10.840;2023-02-04T12:31:01;6.80;99.90
31309;DHT22;17936;52.446;10.840;2023-02-04T12:33:27;6.60;99.90
31309;DHT22;17936;52.446;10.840;2023-02-04T12:35:53;6.90;99.90
31309;DHT22;17936;52.446;10.840;2023-02-04T12:38:19;6.80;99.90
31309;DHT22;17936;52.446;10.840;2023-02-04T12:40:44;7.10;99.90
31309;DHT22;17936;52.446;10.840;2023-02-04T12:43:10;7.10;99.90
31309;DHT22;17936;52.446;10.840;2023-02-04T12:45:36;6.90;99.90
31309;DHT22;17936;52.446;10.840;2023-02-04T12:48:02;7.30;99.90
31309;DHT22;17936;52.446;10.840;2023-02-04T12:50:28;7.00;99.90
31309;DHT22;17936;52.446;10.840;2023-02-04T12:52:56;6.90;99.90
31309;DHT22;17936;52.446;10.840;2023-02-04T12:55:23;6.60;99.90
31309;DHT22;17936;52.446;10.840;2023-02-04T12:57:49;6.80;99.90
31309;DHT22;17936;52.446;10.840;2023-02-04T13:00:16;7.20;99.90
31309;DHT22;17936;52.446;10.840;2023-02-04T13:02:42;7.00;99.90
31309;DHT22;17936;52.446;10.840;2023-02-04T13:05:08;6.90;99.90
31309;DHT22;17936;52.446;10.840;2023-02-04T13:07:35;6.80;99.90
31309;DHT22;17936;52.446;10.840;2023-02-04T13:10:00;6.90;99.90
31309;DHT22;17936;52.446;10.840;2023-02-04T13:12:26;6.70;99.90
31309;DHT22;17936;52.446;10.840;2023-02-04T13:14:51;6.70;99.90
31309;DHT22;17936;52.446;10.840;2023-02-04T13:17:17;6.20;99.90
31309;DHT22;17936;52.446;10.840;2023-02-04T13:19:42;6.40;99.90
31309;DHT22;17936;52.446;10.840;2023-02-04T13:22:08;6.20;99.90
31309;DHT22;17936;52.446;10.840;2023-02-04T13:24:34;6.50;99.90
31309;DHT22;17936;52.446;10.840;2023-02-04T13:27:00;6.60;99.90
31309;DHT22;17936;52.446;10.840;2023-02-04T13:29:25;6.20;99.90
31309;DHT22;17936;52.446;10.840;2023-02-04T13:31:51;6.10;99.90
31309;DHT22;17936;52.446;10.840;2023-02-04T13:34:16;6.00;99.90
31309;DHT22;17936;52.446;10.840;2023-02-04T13:36:42;6.10;99.90
31309;DHT22;17936;52.446;10.840;2023-02-04T13:39:08;6.30;99.90
31309;DHT22;17936;52.446;10.840;2023-02-04T13:41:34;5.90;99.90
31309;DHT22;17936;52.446;10.840;2023-02-04T13:44:01;5.80;99.90
31309;DHT22;17936;52.446;10.840;2023-02-04T13:46:26;5.30;99.90
31309;DHT22;17936;52.446;10.840;2023-02-04T13:48:52;5.60;99.90
31309;DHT22;17936;52.446;10.840;2023-02-04T13:51:18;5.70;99.90
31309;DHT22;17936;52.446;10.840;2023-02-04T13:53:43;6.00;99.90
31309;DHT22;17936;52.446;10.840;2023-02-04T13:56:09;6.00;99.90
31309;DHT22;17936;52.446;10.840;2023-02-04T13:58:34;5.90;99.90
31309;DHT22;17936;52.446;10.840;2023-02-04T14:01:00;5.80;99.90
31309;DHT22;17936;52.446;10.840;2023-02-04T14:03:27;5.80;99.90
31309;DHT22;17936;52.446;10.840;2023-02-04T14:05:54;5.60;99.90
31309;DHT22;17936;52.446;10.840;2023-02-04T14:08:20;5.80;99.90
31309;DHT22;17936;52.446;10.840;2023-02-04T14:10:45;5.70;99.90
31309;DHT22;17936;52.446;10.840;2023-02-04T14:13:11;5.70;99.90
31309;DHT22;17936;52.446;10.840;2023-02-04T14:15:37;5.80;99.90
31309;DHT22;17936;52.446;10.840;2023-02-04T14:18:03;5.80;99.90
31309;DHT22;17936;52.446;10.840;2023-02-04T14:20:29;5.70;99.90
31309;DHT22;17936;52.446;10.840;2023-02-04T14:22:55;6.10;99.90
31309;DHT22;17936;52.446;10.840;2023-02-04T14:25:21;6.20;99.90
31309;DHT22;17936;52.446;10.840;2023-02-04T14:27:47;5.80;99.90
31309;DHT22;17936;52.446;10.840;2023-02-04T14:30:21;5.70;99.90
31309;DHT22;17936;52.446;10.840;2023-02-04T14:32:47;5.70;99.90
31309;DHT22;17936;52.446;10.840;2023-02-04T14:35:13;5.60;99.90
31309;DHT22;17936;52.446;10.840;2023-02-04T14:37:39;5.90;99.90
31309;DHT22;17936;52.446;10.840;2023-02-04T14:40:05;5.80;99.90
31309;DHT22;17936;52.446;10.840;2023-02-04T14:42:31;5.70;99.90
31309;DHT22;17936;52.446;10.840;2023-02-04T14:44:57;5.70;99.90
31309;DHT22;17936;52.446;10.840;2023-02-04T14:47:22;5.50;99.90
31309;DHT22;17936;52.446;10.840;2023-02-04T14:49:48;5.50;99.90
31309;DHT22;17936;52.446;10.840;2023-02-04T14:52:14;5.30;99.90
31309;DHT22;17936;52.446;10.840;2023-02-04T14:54:39;5.30;99.90
31309;DHT22;17936;52.446;10.840;2023-02-04T14:57:05;5.20;99.90
31309;DHT22;17936;52.446;10.840;2023-02-04T14:59:36;5.30;99.90
31309;DHT22;17936;52.446;10.840;2023-02-04T15:02:02;5.10;99.90
31309;DHT22;17936;52.446;10.840;2023-02-04T15:04:28;5.20;99.90
31309;DHT22;17936;52.446;10.840;2023-02-04T15:06:54;5.00;99.90
31309;DHT22;17936;52.446;10.840;2023-02-04T15:09:20;4.90;99.90
31309;DHT22;17936;52.446;10.840;2023-02-04T15:11:45;5.00;99.90
31309;DHT22;17936;52.446;10.840;2023-02-04T15:14:11;5.00;99.90
31309;DHT22;17936;52.446;10.840;2023-02-04T15:16:36;4.80;99.90
31309;DHT22;17936;52.446;10.840;2023-02-04T15:19:02;4.80;99.90
31309;DHT22;17936;52.446;10.840;2023-02-04T15:21:27;4.90;99.90
31309;DHT22;17936;52.446;10.840;2023-02-04T15:23:53;4.80;99.90
31309;DHT22;17936;52.446;10.840;2023-02-04T15:26:19;4.90;99.90
31309;DHT22;17936;52.446;10.840;2023-02-04T15:28:44;4.80;99.90
31309;DHT22;17936;52.446;10.840;2023-02-04T15:31:10;4.80;99.90
31309;DHT22;17936;52.446;10.840;2023-02-04T15:33:36;4.80;99.90
31309;DHT22;17936;52.446;10.840;2023-02-04T15:36:02;4.70;99.90